createdAt,value
2016-02-08T13:18:50.539Z,-3.43
2016-02-08T13:19:03.383Z,-3.43
2016-02-08T13:19:16.554Z,-3.53
2016-02-08T13:19:29.836Z,-3.56
2016-02-08T13:19:43.119Z,-3.56
2016-02-08T13:19:56.400Z,-3.63
2016-02-08T13:20:09.713Z,-3.53
2016-02-08T13:20:23.041Z,-3.47
2016-02-08T13:20:36.340Z,-3.54
2016-02-08T13:20:49.683Z,-3.6
2016-02-08T13:21:03.027Z,-3.65
2016-02-08T13:21:16.308Z,-3.63
2016-02-08T13:21:29.621Z,-3.54
2016-02-08T13:21:43.141Z,-3.42
2016-02-08T13:21:56.437Z,-3.43
2016-02-08T13:22:09.719Z,-3.51
2016-02-08T13:22:23.016Z,-3.45
2016-02-08T13:22:36.283Z,-3.63
2016-02-08T13:22:49.580Z,-3.6
2016-02-08T13:23:02.910Z,-3.69
2016-02-08T13:23:16.207Z,-3.79
2016-02-08T13:23:29.488Z,-3.75
2016-02-08T13:23:42.632Z,-3.79
2016-02-08T13:23:55.913Z,-3.68
2016-02-08T13:24:09.210Z,-3.76
2016-02-08T13:24:22.507Z,-3.72
2016-02-08T13:24:35.634Z,-3.69
2016-02-08T13:24:48.931Z,-3.75
2016-02-08T13:25:02.259Z,-3.72
2016-02-08T13:25:15.556Z,-3.77
2016-02-08T13:25:28.837Z,-3.75
2016-02-08T13:25:42.138Z,-3.75
2016-02-08T13:25:55.419Z,-3.8
2016-02-08T13:26:08.700Z,-3.8
2016-02-08T13:26:22.013Z,-3.77
2016-02-08T13:26:35.296Z,-3.83
2016-02-08T13:26:48.452Z,-3.88
2016-02-08T13:27:01.796Z,-3.8
2016-02-08T13:27:15.077Z,-3.8
2016-02-08T13:27:28.374Z,-3.77
2016-02-08T13:27:41.643Z,-3.88
2016-02-08T13:27:54.940Z,-3.83
2016-02-08T13:28:08.221Z,-3.94
2016-02-08T13:28:21.518Z,-3.86
2016-02-08T13:28:34.832Z,-3.8
2016-02-08T13:28:48.145Z,-3.76
2016-02-08T13:29:01.426Z,-3.77
2016-02-08T13:29:14.567Z,-3.76
2016-02-08T13:29:27.832Z,-3.77
2016-02-08T13:29:41.101Z,-3.82
2016-02-08T13:29:54.382Z,-3.87
2016-02-08T13:30:07.695Z,-3.93
2016-02-08T13:30:20.992Z,-3.93
2016-02-08T13:30:34.323Z,-3.98
2016-02-08T13:30:47.651Z,-3.96
2016-02-08T13:31:00.916Z,-3.97
2016-02-08T13:31:14.198Z,-4.05
2016-02-08T13:31:27.479Z,-3.98
2016-02-08T13:31:40.778Z,-4.06
2016-02-08T13:31:54.043Z,-4.06
2016-02-08T13:32:07.356Z,-3.96
2016-02-08T13:32:20.653Z,-3.91
2016-02-08T13:32:33.984Z,-3.86
2016-02-08T13:32:47.296Z,-3.76
2016-02-08T13:33:00.609Z,-3.72
2016-02-08T13:33:13.875Z,-3.79
2016-02-08T13:33:27.156Z,-3.61
2016-02-08T13:33:40.440Z,-3.76
2016-02-08T13:33:53.721Z,-3.75
2016-02-08T13:34:07.003Z,-3.68
2016-02-08T13:34:20.299Z,-3.57
2016-02-08T13:34:33.599Z,-3.72
2016-02-08T13:34:46.896Z,-3.82
2016-02-08T13:35:00.177Z,-3.77
2016-02-08T13:35:13.443Z,-3.83
2016-02-08T13:35:26.724Z,-3.76
2016-02-08T13:35:39.992Z,-3.83
2016-02-08T13:35:53.273Z,-3.93
2016-02-08T13:36:06.601Z,-3.97
2016-02-08T13:36:19.898Z,-3.94
2016-02-08T13:36:33.230Z,-3.98
2016-02-08T13:36:46.512Z,-4.01
2016-02-08T13:36:59.793Z,-4.06
2016-02-08T13:37:13.074Z,-4.12
2016-02-08T13:37:26.387Z,-4.08
2016-02-08T13:37:39.686Z,-4.18
2016-02-08T13:37:52.984Z,-4.16
2016-02-08T13:38:06.281Z,-4.15
2016-02-08T13:38:19.562Z,-4.12
2016-02-08T13:38:32.846Z,-4.11
2016-02-08T13:38:46.127Z,-4.11
2016-02-08T13:38:59.408Z,-4.12
2016-02-08T13:39:12.676Z,-4.04
2016-02-08T13:39:25.973Z,-4.05
2016-02-08T13:39:39.273Z,-4
2016-02-08T13:39:52.585Z,-3.93
2016-02-08T13:40:05.898Z,-3.83
2016-02-08T13:40:19.179Z,-3.83
2016-02-08T13:40:32.463Z,-3.86
2016-02-08T13:40:45.729Z,-3.87
2016-02-08T13:40:59.010Z,-3.94
2016-02-08T13:41:12.291Z,-3.97
2016-02-08T13:41:25.572Z,-4.04
2016-02-08T13:41:38.888Z,-4.04
2016-02-08T13:41:52.200Z,-4
2016-02-08T13:42:05.482Z,-4.01
2016-02-08T13:42:18.779Z,-3.97
2016-02-08T13:42:32.060Z,-4
2016-02-08T13:42:45.327Z,-4.11
2016-02-08T13:42:58.609Z,-4.06
2016-02-08T13:43:11.890Z,-3.98
2016-02-08T13:43:25.202Z,-4.08
2016-02-08T13:43:38.502Z,-3.98
2016-02-08T13:43:51.830Z,-3.93
2016-02-08T13:44:05.112Z,-4.04
2016-02-08T13:44:18.377Z,-4.12
2016-02-08T13:44:31.643Z,-4.06
2016-02-08T13:44:44.911Z,-4.16
2016-02-08T13:44:58.208Z,-4.23
2016-02-08T13:45:11.490Z,-4.06
2016-02-08T13:45:24.802Z,-4.09
2016-02-08T13:45:38.133Z,-4.11
2016-02-08T13:45:51.430Z,-4.09
2016-02-08T13:46:04.696Z,-4.15
2016-02-08T13:46:17.977Z,-4.14
2016-02-08T13:46:31.243Z,-4.18
2016-02-08T13:46:44.385Z,-4.29
2016-02-08T13:46:57.666Z,-4.37
2016-02-08T13:47:10.979Z,-4.41
2016-02-08T13:47:24.245Z,-4.44
2016-02-08T13:47:37.530Z,-4.41
2016-02-08T13:47:50.795Z,-4.41
2016-02-08T13:48:04.092Z,-4.32
2016-02-08T13:48:17.374Z,-4.34
2016-02-08T13:48:30.670Z,-4.34
2016-02-08T13:48:43.985Z,-4.3
2016-02-08T13:48:57.329Z,-4.36
2016-02-08T13:49:10.610Z,-4.29
2016-02-08T13:49:23.876Z,-4.26
2016-02-08T13:49:37.144Z,-4.34
2016-02-08T13:49:50.410Z,-4.43
2016-02-08T13:50:03.675Z,-4.3
2016-02-08T13:50:16.941Z,-4.41
2016-02-08T13:50:30.082Z,-4.37
2016-02-08T13:50:43.396Z,-4.39
2016-02-08T13:50:56.709Z,-4.34
2016-02-08T13:51:10.037Z,-4.34
2016-02-08T13:51:23.302Z,-4.45
2016-02-08T13:51:36.588Z,-4.43
2016-02-08T13:51:49.853Z,-4.5
2016-02-08T13:52:03.150Z,-4.48
2016-02-08T13:52:16.447Z,-4.55
2016-02-08T13:52:29.728Z,-4.51
2016-02-08T13:52:43.012Z,-4.5
2016-02-08T13:52:56.121Z,-4.48
2016-02-08T13:53:09.433Z,-4.47
2016-02-08T13:53:22.730Z,-4.51
2016-02-08T13:53:36.060Z,-4.51
2016-02-08T13:53:49.342Z,-4.47
2016-02-08T13:54:02.623Z,-4.48
2016-02-08T13:54:15.920Z,-4.41
2016-02-08T13:54:29.201Z,-4.36
2016-02-08T13:54:42.470Z,-4.37
2016-02-08T13:54:55.767Z,-4.34
2016-02-08T13:55:09.063Z,-4.36
2016-02-08T13:55:22.067Z,-4.41
2016-02-08T13:55:35.383Z,-4.33
2016-02-08T13:55:48.649Z,-4.25
2016-02-08T13:56:01.930Z,-4.27
2016-02-08T13:56:15.211Z,-4.36
2016-02-08T13:56:28.492Z,-4.29
2016-02-08T13:56:41.792Z,-4.33
2016-02-08T13:56:55.105Z,-4.37
2016-02-08T13:57:08.417Z,-4.36
2016-02-08T13:57:21.698Z,-4.37
2016-02-08T13:57:34.966Z,-4.41
2016-02-08T13:57:48.247Z,-4.36
2016-02-08T13:58:01.513Z,-4.41
2016-02-08T13:58:14.810Z,-4.36
2016-02-08T13:58:28.091Z,-4.39
2016-02-08T13:58:41.391Z,-4.39
2016-02-08T13:58:54.703Z,-4.39
2016-02-08T13:59:07.985Z,-4.41
2016-02-08T13:59:21.250Z,-4.34
2016-02-08T13:59:34.535Z,-4.34
2016-02-08T13:59:47.816Z,-4.41
2016-02-08T14:00:01.097Z,-4.47
2016-02-08T14:00:14.378Z,-4.48
2016-02-08T14:00:27.691Z,-4.48
2016-02-08T14:00:40.991Z,-4.55
2016-02-08T14:00:54.256Z,-4.47
2016-02-08T14:01:07.538Z,-4.43
2016-02-08T14:01:20.819Z,-4.41
2016-02-08T14:01:33.930Z,-4.32
2016-02-08T14:01:47.196Z,-4.36
2016-02-08T14:02:00.493Z,-4.3
2016-02-08T14:02:13.774Z,-4.36
2016-02-08T14:02:27.086Z,-4.36
2016-02-08T14:02:40.385Z,-4.37
2016-02-08T14:02:53.667Z,-4.41
2016-02-08T14:03:06.948Z,-4.34
2016-02-08T14:03:20.260Z,-4.39
2016-02-08T14:03:33.546Z,-4.34
2016-02-08T14:03:46.828Z,-4.41
2016-02-08T14:03:59.640Z,-4.44
2016-02-08T14:04:12.640Z,-4.47
2016-02-08T14:04:26.031Z,-4.44
2016-02-08T14:04:39.158Z,-4.39
2016-02-08T14:04:52.439Z,-4.43
2016-02-08T14:05:05.705Z,-4.36
2016-02-08T14:05:18.986Z,-4.37
2016-02-08T14:05:32.252Z,-4.26
2016-02-08T14:05:45.551Z,-4.36
2016-02-08T14:05:58.833Z,-4.32
2016-02-08T14:06:12.147Z,-4.23
2016-02-08T14:06:25.460Z,-4.29
2016-02-08T14:06:38.790Z,-4.12
2016-02-08T14:06:52.118Z,-4.16
2016-02-08T14:07:05.399Z,-4.23
2016-02-08T14:07:18.680Z,-4.18
2016-02-08T14:07:31.946Z,-4.08
2016-02-08T14:07:45.076Z,-4.09
2016-02-08T14:07:58.342Z,-4.09
2016-02-08T14:08:11.326Z,-4.18
2016-02-08T14:08:24.623Z,-4.08
2016-02-08T14:08:37.954Z,-4.19
2016-02-08T14:08:51.235Z,-4.08
2016-02-08T14:09:04.501Z,-4.14
2016-02-08T14:09:17.782Z,-4.22
2016-02-08T14:09:31.063Z,-4.32
2016-02-08T14:09:44.348Z,-4.33
2016-02-08T14:09:57.645Z,-4.41
2016-02-08T14:10:10.941Z,-4.34
2016-02-08T14:10:24.254Z,-4.43
2016-02-08T14:10:37.537Z,-4.36
2016-02-08T14:10:50.818Z,-4.36
2016-02-08T14:11:04.084Z,-4.3
2016-02-08T14:11:17.381Z,-4.37
2016-02-08T14:11:30.662Z,-4.44
2016-02-08T14:11:43.932Z,-4.26
2016-02-08T14:11:57.229Z,-4.32
2016-02-08T14:12:10.385Z,-4.26
2016-02-08T14:12:23.697Z,-4.26
2016-02-08T14:12:36.997Z,-4.19
2016-02-08T14:12:50.263Z,-4.32
2016-02-08T14:13:03.544Z,-4.25
2016-02-08T14:13:16.825Z,-4.29
2016-02-08T14:13:30.091Z,-4.37
2016-02-08T14:13:43.390Z,-4.37
2016-02-08T14:13:56.687Z,-4.41
2016-02-08T14:14:09.984Z,-4.47
2016-02-08T14:14:23.281Z,-4.51
2016-02-08T14:14:36.612Z,-4.48
2016-02-08T14:14:49.877Z,-4.54
2016-02-08T14:15:03.143Z,-4.51
2016-02-08T14:15:16.424Z,-4.48
2016-02-08T14:15:29.705Z,-4.54
2016-02-08T14:15:43.004Z,-4.39
2016-02-08T14:15:56.286Z,-4.51
2016-02-08T14:16:09.895Z,-4.45
2016-02-08T14:16:23.176Z,-4.47
2016-02-08T14:16:36.461Z,-4.36
2016-02-08T14:16:49.727Z,-4.41
2016-02-08T14:17:03.008Z,-4.43
2016-02-08T14:17:16.290Z,-4.47
2016-02-08T14:17:29.571Z,-4.41
2016-02-08T14:17:42.698Z,-4.45
2016-02-08T14:17:56.010Z,-4.44
2016-02-08T14:18:09.323Z,-4.44
2016-02-08T14:18:22.588Z,-4.44
2016-02-08T14:18:35.872Z,-4.45
2016-02-08T14:18:49.153Z,-4.43
2016-02-08T14:19:02.419Z,-4.41
2016-02-08T14:19:15.700Z,-4.34
2016-02-08T14:19:28.997Z,-4.37
2016-02-08T14:19:42.297Z,-4.33
2016-02-08T14:19:55.594Z,-4.44
2016-02-08T14:20:08.876Z,-4.37
2016-02-08T14:20:22.157Z,-4.33
2016-02-08T14:20:35.426Z,-4.39
2016-02-08T14:20:48.692Z,-4.36
2016-02-08T14:21:01.989Z,-4.37
2016-02-08T14:21:15.270Z,-4.39
2016-02-08T14:21:28.583Z,-4.3
2016-02-08T14:21:41.928Z,-4.37
2016-02-08T14:21:55.178Z,-4.33
2016-02-08T14:22:08.428Z,-4.44
2016-02-08T14:22:21.678Z,-4.41
2016-02-08T14:22:34.963Z,-4.33
2016-02-08T14:22:48.213Z,-4.39
2016-02-08T14:23:01.478Z,-4.41
2016-02-08T14:23:14.760Z,-4.39
2016-02-08T14:23:28.041Z,-4.45
2016-02-08T14:23:41.308Z,-4.47
2016-02-08T14:23:54.605Z,-4.5
2016-02-08T14:24:07.871Z,-4.51
2016-02-08T14:24:21.152Z,-4.34
2016-02-08T14:24:34.452Z,-4.48
2016-02-08T14:24:47.749Z,-4.51
2016-02-08T14:25:01.077Z,-4.37
2016-02-08T14:25:14.359Z,-4.44
2016-02-08T14:25:27.641Z,-4.47
2016-02-08T14:25:40.925Z,-4.5
2016-02-08T14:25:54.206Z,-4.41
2016-02-08T14:26:07.472Z,-4.41
2016-02-08T14:26:20.769Z,-4.39
2016-02-08T14:26:34.067Z,-4.41
2016-02-08T14:26:47.380Z,-4.41
2016-02-08T14:27:00.661Z,-4.41
2016-02-08T14:27:13.927Z,-4.36
2016-02-08T14:27:27.208Z,-4.47
2016-02-08T14:27:40.475Z,-4.53
2016-02-08T14:27:53.744Z,-4.41
2016-02-08T14:28:07.041Z,-4.53
2016-02-08T14:28:20.338Z,-4.57
2016-02-08T14:28:33.669Z,-4.54
2016-02-08T14:28:46.997Z,-4.55
2016-02-08T14:29:00.278Z,-4.51
2016-02-08T14:29:13.544Z,-4.54
2016-02-08T14:29:26.825Z,-4.51
2016-02-08T14:29:40.079Z,-4.61
2016-02-08T14:29:53.360Z,-4.53
2016-02-08T14:30:06.657Z,-4.59
2016-02-08T14:30:19.969Z,-4.53
2016-02-08T14:30:33.269Z,-4.55
2016-02-08T14:30:46.550Z,-4.54
2016-02-08T14:30:59.816Z,-4.53
2016-02-08T14:31:13.097Z,-4.47
2016-02-08T14:31:26.394Z,-4.43
2016-02-08T14:31:39.663Z,-4.51
2016-02-08T14:31:52.944Z,-4.48
2016-02-08T14:32:06.272Z,-4.51
2016-02-08T14:32:19.585Z,-4.62
2016-02-08T14:32:32.850Z,-4.66
2016-02-08T14:32:46.120Z,-4.68
2016-02-08T14:32:59.401Z,-4.8
2016-02-08T14:33:12.668Z,-4.83
2016-02-08T14:33:25.949Z,-4.8
2016-02-08T14:33:39.071Z,-4.66
2016-02-08T14:33:52.368Z,-4.65
2016-02-08T14:34:05.696Z,-4.69
2016-02-08T14:34:18.977Z,-4.66
2016-02-08T14:34:32.258Z,-4.71
2016-02-08T14:34:45.522Z,-4.79
2016-02-08T14:34:58.803Z,-4.87
2016-02-08T14:35:12.100Z,-4.83
2016-02-08T14:35:25.381Z,-4.86
2016-02-08T14:35:38.674Z,-4.83
2016-02-08T14:35:51.987Z,-4.87
2016-02-08T14:36:05.284Z,-5
2016-02-08T14:36:18.565Z,-4.86
2016-02-08T14:36:31.674Z,-4.89
2016-02-08T14:36:44.953Z,-4.86
2016-02-08T14:36:58.219Z,-4.79
2016-02-08T14:37:11.516Z,-4.8
2016-02-08T14:37:24.813Z,-4.66
2016-02-08T14:37:38.123Z,-4.69
2016-02-08T14:37:51.436Z,-4.68
2016-02-08T14:38:04.701Z,-4.68
2016-02-08T14:38:17.826Z,-4.69
2016-02-08T14:38:31.092Z,-4.69
2016-02-08T14:38:44.391Z,-4.68
2016-02-08T14:38:57.672Z,-4.71
2016-02-08T14:39:10.969Z,-4.63
2016-02-08T14:39:24.266Z,-4.71
2016-02-08T14:39:37.583Z,-4.68
2016-02-08T14:39:50.849Z,-4.72
2016-02-08T14:40:04.130Z,-4.66
2016-02-08T14:40:17.396Z,-4.69
2016-02-08T14:40:30.693Z,-4.68
2016-02-08T14:40:43.975Z,-4.8
2016-02-08T14:40:57.272Z,-4.79
2016-02-08T14:41:10.412Z,-4.68
2016-02-08T14:41:23.741Z,-4.68
2016-02-08T14:41:37.023Z,-4.68
2016-02-08T14:41:50.304Z,-4.8
2016-02-08T14:42:03.585Z,-4.69
2016-02-08T14:42:16.882Z,-4.87
2016-02-08T14:42:30.163Z,-4.76
2016-02-08T14:42:43.446Z,-4.84
2016-02-08T14:42:56.743Z,-4.79
2016-02-08T14:43:10.039Z,-4.75
2016-02-08T14:43:23.352Z,-4.82
2016-02-08T14:43:36.635Z,-4.8
2016-02-08T14:43:49.901Z,-4.62
2016-02-08T14:44:03.182Z,-4.68
2016-02-08T14:44:16.463Z,-4.72
2016-02-08T14:44:29.745Z,-4.69
2016-02-08T14:44:43.058Z,-4.68
2016-02-08T14:44:56.371Z,-4.68
2016-02-08T14:45:09.949Z,-4.76
2016-02-08T14:45:23.261Z,-4.8
2016-02-08T14:45:36.530Z,-4.87
2016-02-08T14:45:49.811Z,-4.79
2016-02-08T14:46:03.092Z,-4.84
2016-02-08T14:46:16.874Z,-4.86
2016-02-08T14:46:30.374Z,-4.98
2016-02-08T14:46:43.688Z,-4.92
2016-02-08T14:46:56.954Z,-4.89
2016-02-08T14:47:10.235Z,-4.84
2016-02-08T14:47:23.547Z,-4.86
2016-02-08T14:47:36.846Z,-4.79
2016-02-08T14:47:50.159Z,-4.79
2016-02-08T14:48:03.440Z,-4.8
2016-02-08T14:48:16.737Z,-4.82
2016-02-08T14:48:30.003Z,-4.87
2016-02-08T14:48:43.286Z,-4.83
2016-02-08T14:48:56.567Z,-4.76
2016-02-08T14:49:09.848Z,-4.84
2016-02-08T14:49:23.192Z,-4.8
2016-02-08T14:49:36.461Z,-4.87
2016-02-08T14:49:49.742Z,-4.87
2016-02-08T14:50:03.008Z,-4.94
2016-02-08T14:50:16.289Z,-5.02
2016-02-08T14:50:29.570Z,-4.86
2016-02-08T14:50:42.853Z,-4.86
2016-02-08T14:50:56.150Z,-4.87
2016-02-08T14:51:09.463Z,-4.84
2016-02-08T14:51:22.744Z,-4.84
2016-02-08T14:51:36.027Z,-4.83
2016-02-08T14:51:49.293Z,-4.83
2016-02-08T14:52:02.574Z,-4.86
2016-02-08T14:52:30.012Z,-4.84
2016-02-08T14:52:43.295Z,-4.79
2016-02-08T14:52:56.592Z,-4.66
2016-02-08T14:53:09.904Z,-4.75
2016-02-08T14:53:23.185Z,-4.65
2016-02-08T14:53:36.281Z,-4.68
2016-02-08T14:53:49.562Z,-4.71
2016-02-08T14:54:02.828Z,-4.71
2016-02-08T14:54:16.109Z,-4.63
2016-02-08T14:54:29.375Z,-4.68
2016-02-08T14:54:42.676Z,-4.51
2016-02-08T14:54:55.973Z,-4.48
2016-02-08T14:55:09.098Z,-4.68
2016-02-08T14:55:22.363Z,-4.69
2016-02-08T14:55:35.647Z,-4.76
2016-02-08T14:55:48.912Z,-4.79
2016-02-08T14:56:02.193Z,-4.8
2016-02-08T14:56:15.506Z,-4.9
2016-02-08T14:56:28.803Z,-4.89
2016-02-08T14:56:42.118Z,-4.83
2016-02-08T14:56:55.446Z,-4.82
2016-02-08T14:57:08.743Z,-4.87
2016-02-08T14:57:22.025Z,-4.79
2016-02-08T14:57:35.292Z,-4.83
2016-02-08T14:57:48.573Z,-4.69
2016-02-08T14:58:01.839Z,-4.66
2016-02-08T14:58:15.136Z,-4.65
2016-02-08T14:58:28.448Z,-4.68
2016-02-08T14:58:41.781Z,-4.69
2016-02-08T14:58:55.046Z,-4.69
2016-02-08T14:59:08.546Z,-4.71
2016-02-08T14:59:21.812Z,-4.68
2016-02-08T14:59:35.095Z,-4.63
2016-02-08T14:59:48.392Z,-4.71
2016-02-08T15:00:01.689Z,-4.72
2016-02-08T15:00:15.022Z,-4.72
2016-02-08T15:00:28.350Z,-4.62
2016-02-08T15:00:41.650Z,-4.55
2016-02-08T15:00:54.915Z,-4.53
2016-02-08T15:01:08.212Z,-4.66
2016-02-08T15:01:21.494Z,-4.63
2016-02-08T15:01:34.777Z,-4.63
2016-02-08T15:01:48.074Z,-4.69
2016-02-08T15:02:01.386Z,-4.83
2016-02-08T15:02:14.683Z,-4.8
2016-02-08T15:02:27.996Z,-4.76
2016-02-08T15:02:41.280Z,-4.86
2016-02-08T15:02:54.550Z,-4.79
2016-02-08T15:03:07.675Z,-4.8
2016-02-08T15:03:20.957Z,-4.79
2016-02-08T15:03:34.241Z,-4.9
2016-02-08T15:03:47.538Z,-4.9
2016-02-08T15:04:00.694Z,-4.86
2016-02-08T15:04:13.960Z,-4.75
2016-02-08T15:04:27.241Z,-4.86
2016-02-08T15:04:40.541Z,-4.82
2016-02-08T15:04:53.806Z,-4.82
2016-02-08T15:05:07.072Z,-4.83
2016-02-08T15:05:20.353Z,-4.68
2016-02-08T15:05:33.666Z,-4.62
2016-02-08T15:05:46.981Z,-4.68
2016-02-08T15:06:00.325Z,-4.65
2016-02-08T15:06:13.591Z,-4.66
2016-02-08T15:06:26.872Z,-4.72
2016-02-08T15:06:40.139Z,-4.66
2016-02-08T15:06:53.421Z,-4.68
2016-02-08T15:07:06.686Z,-4.65
2016-02-08T15:07:19.983Z,-4.68
2016-02-08T15:07:33.296Z,-4.75
2016-02-08T15:07:46.611Z,-4.71
2016-02-08T15:07:59.892Z,-4.69
2016-02-08T15:08:13.033Z,-4.68
2016-02-08T15:08:26.302Z,-4.8
2016-02-08T15:08:39.569Z,-4.79
2016-02-08T15:08:52.851Z,-4.84
2016-02-08T15:09:06.147Z,-4.69
2016-02-08T15:09:19.444Z,-4.75
2016-02-08T15:09:32.757Z,-4.68
2016-02-08T15:09:46.056Z,-4.68
2016-02-08T15:09:59.384Z,-4.69
2016-02-08T15:10:12.500Z,-4.68
2016-02-08T15:10:25.781Z,-4.69
2016-02-08T15:10:39.066Z,-4.63
2016-02-08T15:10:52.332Z,-4.68
2016-02-08T15:11:05.629Z,-4.68
2016-02-08T15:11:18.926Z,-4.69
2016-02-08T15:11:32.238Z,-4.69
2016-02-08T15:11:45.568Z,-4.66
2016-02-08T15:11:59.068Z,-4.66
2016-02-08T15:12:12.334Z,-4.66
2016-02-08T15:12:25.631Z,-4.65
2016-02-08T15:12:38.900Z,-4.54
2016-02-08T15:12:52.196Z,-4.54
2016-02-08T15:13:05.478Z,-4.51
2016-02-08T15:13:18.790Z,-4.5
2016-02-08T15:13:32.087Z,-4.51
2016-02-08T15:13:45.356Z,-4.48
2016-02-08T15:13:58.637Z,-4.37
2016-02-08T15:14:11.905Z,-4.5
2016-02-08T15:14:25.186Z,-4.53
2016-02-08T15:14:38.455Z,-4.51
2016-02-08T15:14:51.752Z,-4.55
2016-02-08T15:15:05.049Z,-4.59
2016-02-08T15:15:18.346Z,-4.66
2016-02-08T15:15:31.674Z,-4.55
2016-02-08T15:15:44.989Z,-4.59
2016-02-08T15:15:58.254Z,-4.57
2016-02-08T15:16:11.536Z,-4.66
2016-02-08T15:16:24.802Z,-4.51
2016-02-08T15:16:38.086Z,-4.54
2016-02-08T15:16:51.383Z,-4.57
2016-02-08T15:17:04.711Z,-4.54
2016-02-08T15:17:18.008Z,-4.66
2016-02-08T15:17:31.321Z,-4.66
2016-02-08T15:17:44.588Z,-4.63
2016-02-08T15:18:12.042Z,-4.57
2016-02-08T15:18:25.307Z,-4.54
2016-02-08T15:18:38.576Z,-4.48
2016-02-08T15:18:51.873Z,-4.47
2016-02-08T15:19:05.170Z,-4.5
2016-02-08T15:19:18.498Z,-4.5
2016-02-08T15:19:31.701Z,-4.54
2016-02-08T15:19:44.985Z,-4.5
2016-02-08T15:19:58.266Z,-4.51
2016-02-08T15:20:11.533Z,-4.63
2016-02-08T15:20:24.830Z,-4.66
2016-02-08T15:20:38.113Z,-4.72
2016-02-08T15:20:51.394Z,-4.69
2016-02-08T15:21:04.691Z,-4.65
2016-02-08T15:21:18.019Z,-4.63
2016-02-08T15:21:31.300Z,-4.68
2016-02-08T15:21:44.586Z,-4.62
2016-02-08T15:21:57.851Z,-4.55
2016-02-08T15:22:11.117Z,-4.53
2016-02-08T15:22:24.398Z,-4.5
2016-02-08T15:22:37.680Z,-4.51
2016-02-08T15:22:50.962Z,-4.39
2016-02-08T15:23:04.274Z,-4.48
2016-02-08T15:23:31.727Z,-4.5
2016-02-08T15:23:45.059Z,-4.53
2016-02-08T15:23:58.356Z,-4.5
2016-02-08T15:24:11.622Z,-4.47
2016-02-08T15:24:24.888Z,-4.5
2016-02-08T15:24:38.171Z,-4.53
2016-02-08T15:24:51.436Z,-4.45
2016-02-08T15:25:04.733Z,-4.48
2016-02-08T15:25:18.015Z,-4.51
2016-02-08T15:25:31.311Z,-4.45
2016-02-08T15:25:44.627Z,-4.5
2016-02-08T15:25:57.924Z,-4.45
2016-02-08T15:26:11.189Z,-4.48
2016-02-08T15:26:24.471Z,-4.41
2016-02-08T15:26:37.755Z,-4.43
2016-02-08T15:26:51.021Z,-4.32
2016-02-08T15:27:04.302Z,-4.3
2016-02-08T15:27:17.614Z,-4.34
2016-02-08T15:27:30.911Z,-4.32
2016-02-08T15:27:44.211Z,-4.18
2016-02-08T15:27:57.461Z,-4.18
2016-02-08T15:28:10.742Z,-4.15
2016-02-08T15:28:24.024Z,-4.12
2016-02-08T15:28:37.291Z,-4.12
2016-02-08T15:28:50.572Z,-4.09
2016-02-08T15:29:03.838Z,-4.05
2016-02-08T15:29:17.166Z,-4.23
2016-02-08T15:29:30.447Z,-4.15
2016-02-08T15:29:43.746Z,-4.15
2016-02-08T15:29:57.029Z,-4.22
2016-02-08T15:30:10.294Z,-4.26
2016-02-08T15:30:23.607Z,-4.27
2016-02-08T15:30:36.908Z,-4.27
2016-02-08T15:30:50.204Z,-4.29
2016-02-08T15:31:03.517Z,-4.22
2016-02-08T15:31:16.783Z,-4.19
2016-02-08T15:31:30.095Z,-4.09
2016-02-08T15:31:43.363Z,-4.23
2016-02-08T15:31:56.660Z,-4.08
2016-02-08T15:32:09.956Z,-4.06
2016-02-08T15:32:23.253Z,-4.14
2016-02-08T15:32:36.569Z,-3.94
2016-02-08T15:32:49.881Z,-3.98
2016-02-08T15:33:03.163Z,-4.01
2016-02-08T15:33:16.459Z,-4
2016-02-08T15:33:29.756Z,-3.93
2016-02-08T15:33:43.040Z,-3.96
2016-02-08T15:33:56.305Z,-3.98
2016-02-08T15:34:09.586Z,-4.16
2016-02-08T15:34:22.868Z,-4.14
2016-02-08T15:34:36.168Z,-4.23
2016-02-08T15:34:49.449Z,-4.16
2016-02-08T15:35:02.730Z,-4.15
2016-02-08T15:35:16.058Z,-4.26
2016-02-08T15:35:29.340Z,-4.32
2016-02-08T15:35:42.625Z,-4.39
2016-02-08T15:35:55.906Z,-4.34
2016-02-08T15:36:09.172Z,-4.39
2016-02-08T15:36:22.468Z,-4.34
2016-02-08T15:36:35.752Z,-4.36
2016-02-08T15:36:49.064Z,-4.41
2016-02-08T15:37:02.377Z,-4.47
2016-02-08T15:37:15.705Z,-4.44
2016-02-08T15:37:28.970Z,-4.41
2016-02-08T15:37:42.255Z,-4.36
2016-02-08T15:37:55.536Z,-4.25
2016-02-08T15:38:08.818Z,-4.27
2016-02-08T15:38:22.099Z,-4.29
2016-02-08T15:38:35.368Z,-4.14
2016-02-08T15:38:48.665Z,-4.15
2016-02-08T15:39:01.977Z,-4.19
2016-02-08T15:39:15.274Z,-4.25
2016-02-08T15:39:28.587Z,-4.15
2016-02-08T15:39:41.866Z,-4.26
2016-02-08T15:39:55.132Z,-4.25
2016-02-08T15:40:08.413Z,-4.23
2016-02-08T15:40:21.679Z,-4.22
2016-02-08T15:40:34.978Z,-4.23
2016-02-08T15:40:48.259Z,-4.15
2016-02-08T15:41:01.571Z,-4.27
2016-02-08T15:41:14.884Z,-4.15
2016-02-08T15:41:28.196Z,-4.18
2016-02-08T15:41:41.512Z,-4.22
2016-02-08T15:41:54.777Z,-4.15
2016-02-08T15:42:08.059Z,-4.25
2016-02-08T15:42:21.340Z,-4.22
2016-02-08T15:42:34.621Z,-4.09
2016-02-08T15:42:47.905Z,-4.08
2016-02-08T15:43:01.202Z,-4.18
2016-02-08T15:43:14.530Z,-4.09
2016-02-08T15:43:27.691Z,-4.11
2016-02-08T15:43:41.021Z,-4.18
2016-02-08T15:43:54.302Z,-4.09
2016-02-08T15:44:07.568Z,-4.08
2016-02-08T15:44:20.911Z,-4.05
2016-02-08T15:44:34.193Z,-4.11
2016-02-08T15:44:47.477Z,-4.12
2016-02-08T15:45:00.758Z,-4.15
2016-02-08T15:45:14.055Z,-4.19
2016-02-08T15:45:27.383Z,-4.05
2016-02-08T15:45:40.652Z,-4.01
2016-02-08T15:45:53.917Z,-4.09
2016-02-08T15:46:07.042Z,-4.06
2016-02-08T15:46:20.324Z,-4
2016-02-08T15:46:33.589Z,-4
2016-02-08T15:46:46.888Z,-4
2016-02-08T15:47:00.279Z,-3.94
2016-02-08T15:47:13.560Z,-4.01
2016-02-08T15:47:26.826Z,-4.01
2016-02-08T15:47:40.110Z,-4.01
2016-02-08T15:47:53.407Z,-3.91
2016-02-08T15:48:06.891Z,-3.96
2016-02-08T15:48:20.188Z,-3.97
2016-02-08T15:48:33.516Z,-4
2016-02-08T15:48:46.847Z,-4.06
2016-02-08T15:49:00.163Z,-4.05
2016-02-08T15:49:13.444Z,-3.93
2016-02-08T15:49:26.709Z,-4.05
2016-02-08T15:49:39.836Z,-4.09
2016-02-08T15:49:53.118Z,-4.11
2016-02-08T15:50:06.383Z,-4.06
2016-02-08T15:50:19.696Z,-4.05
2016-02-08T15:50:33.024Z,-4.11
2016-02-08T15:50:46.340Z,-4.05
2016-02-08T15:50:59.622Z,-4.08
2016-02-08T15:51:12.887Z,-4.12
2016-02-08T15:51:26.153Z,-4.09
2016-02-08T15:51:39.437Z,-4.15
2016-02-08T15:51:52.718Z,-4.12
2016-02-08T15:52:06.015Z,-4.09
2016-02-08T15:52:19.328Z,-4.15
2016-02-08T15:52:32.625Z,-4.05
2016-02-08T15:53:00.096Z,-4.06
2016-02-08T15:53:13.378Z,-4.04
2016-02-08T15:53:26.721Z,-4.06
2016-02-08T15:53:40.020Z,-4.06
2016-02-08T15:53:53.302Z,-4.05
2016-02-08T15:54:06.567Z,-4.12
2016-02-08T15:54:19.833Z,-4.08
2016-02-08T15:54:33.114Z,-4.11
2016-02-08T15:54:46.413Z,-4.04
2016-02-08T15:54:59.694Z,-4.06
2016-02-08T15:55:12.991Z,-4.15
2016-02-08T15:55:26.288Z,-4.19
2016-02-08T15:55:39.573Z,-4.3
2016-02-08T15:55:52.839Z,-4.41
2016-02-08T15:56:06.120Z,-4.37
2016-02-08T15:56:19.386Z,-4.37
2016-02-08T15:56:32.526Z,-4.3
2016-02-08T15:56:45.810Z,-4.32
2016-02-08T15:56:59.139Z,-4.36
2016-02-08T15:57:12.451Z,-4.39
2016-02-08T15:57:25.732Z,-4.33
2016-02-08T15:57:39.001Z,-4.32
2016-02-08T15:57:52.282Z,-4.41
2016-02-08T15:58:05.564Z,-4.25
2016-02-08T15:58:18.829Z,-4.27
2016-02-08T15:58:32.126Z,-4.18
2016-02-08T15:58:45.442Z,-4.26
2016-02-08T15:58:58.738Z,-4.16
2016-02-08T15:59:11.926Z,-4.14
2016-02-08T15:59:25.192Z,-4.12
2016-02-08T15:59:38.460Z,-4.19
2016-02-08T15:59:51.726Z,-4.05
2016-02-08T16:00:04.991Z,-4.12
2016-02-08T16:00:18.257Z,-4.18
2016-02-08T16:00:31.523Z,-4.19
2016-02-08T16:00:44.806Z,-4.08
2016-02-08T16:00:58.087Z,-4.09
2016-02-08T16:01:11.353Z,-4.12
2016-02-08T16:01:24.634Z,-4.22
2016-02-08T16:01:37.917Z,-4.29
2016-02-08T16:01:51.199Z,-4.37
2016-02-08T16:02:04.464Z,-4.32
2016-02-08T16:02:17.761Z,-4.47
2016-02-08T16:02:31.058Z,-4.47
2016-02-08T16:02:44.374Z,-4.53
2016-02-08T16:02:57.656Z,-4.54
2016-02-08T16:03:10.937Z,-4.59
2016-02-08T16:03:24.218Z,-4.62
2016-02-08T16:03:37.486Z,-4.72
2016-02-08T16:03:50.767Z,-4.65
2016-02-08T16:04:04.048Z,-4.69
2016-02-08T16:04:17.345Z,-4.79
2016-02-08T16:04:30.642Z,-4.82
2016-02-08T16:04:43.958Z,-4.82
2016-02-08T16:04:57.270Z,-4.83
2016-02-08T16:05:10.537Z,-4.71
2016-02-08T16:05:23.818Z,-4.79
2016-02-08T16:05:37.101Z,-4.72
2016-02-08T16:05:50.367Z,-4.69
2016-02-08T16:06:03.507Z,-4.83
2016-02-08T16:06:16.789Z,-4.69
2016-02-08T16:06:30.086Z,-4.71
2016-02-08T16:06:43.401Z,-4.82
2016-02-08T16:06:56.682Z,-4.82
2016-02-08T16:07:09.964Z,-4.83
2016-02-08T16:07:23.089Z,-4.84
2016-02-08T16:07:36.373Z,-4.98
2016-02-08T16:07:49.638Z,-5.02
2016-02-08T16:08:02.935Z,-5.12
2016-02-08T16:08:16.217Z,-5.07
2016-02-08T16:08:29.498Z,-5.11
2016-02-08T16:08:42.797Z,-5.19
2016-02-08T16:08:56.078Z,-5.17
2016-02-08T16:09:09.390Z,-5.24
2016-02-08T16:09:22.656Z,-5.26
2016-02-08T16:09:35.940Z,-5.19
2016-02-08T16:09:49.237Z,-5.26
2016-02-08T16:10:02.503Z,-5.2
2016-02-08T16:10:15.784Z,-5.12
2016-02-08T16:10:29.084Z,-5.23
2016-02-08T16:10:42.384Z,-5.19
2016-02-08T16:10:55.556Z,-5.2
2016-02-08T16:11:08.852Z,-5.07
2016-02-08T16:11:22.115Z,-5.05